TimeEDT,TemperatureF,Dew PointF,Humidity,Sea Level PressureIn,VisibilityMPH,Wind Direction,Wind SpeedMPH,Gust SpeedMPH,PrecipitationIn,Events,Conditions,WindDirDegrees,DateUTC
12:56 AM,64.9,57.9,78,29.98,10.0,West,5.8,-,N/A,,Scattered Clouds,280,2013-08-02 04:56:00
1:56 AM,64.9,57.0,75,29.99,10.0,WNW,5.8,-,N/A,,Partly Cloudy,300,2013-08-02 05:56:00
2:56 AM,62.1,57.0,84,29.97,10.0,Calm,Calm,-,N/A,,Partly Cloudy,0,2013-08-02 06:56:00
3:56 AM,59.0,55.0,87,29.98,10.0,WNW,3.5,-,N/A,,Partly Cloudy,290,2013-08-02 07:56:00
4:56 AM,61.0,55.9,83,29.98,10.0,NW,3.5,-,N/A,,Scattered Clouds,310,2013-08-02 08:56:00
5:56 AM,60.1,55.9,86,30.00,10.0,NW,5.8,-,N/A,,Partly Cloudy,310,2013-08-02 09:56:00
6:56 AM,59.0,55.0,87,29.99,10.0,Calm,Calm,-,N/A,,Scattered Clouds,0,2013-08-02 10:56:00
7:56 AM,63.0,57.9,84,30.00,10.0,Calm,Calm,-,N/A,,Mostly Cloudy,0,2013-08-02 11:56:00
8:56 AM,66.9,59.0,76,30.01,10.0,Calm,Calm,-,N/A,,Mostly Cloudy,0,2013-08-02 12:56:00
9:56 AM,71.1,57.9,63,30.00,10.0,SSE,4.6,-,N/A,,Mostly Cloudy,160,2013-08-02 13:56:00
10:56 AM,75.0,57.0,53,30.00,10.0,South,9.2,-,N/A,,Mostly Cloudy,190,2013-08-02 14:56:00
11:56 AM,75.0,57.0,53,30.01,10.0,South,6.9,-,N/A,,Mostly Cloudy,180,2013-08-02 15:56:00
12:56 PM,77.0,57.9,52,30.02,10.0,SW,9.2,-,N/A,,Overcast,230,2013-08-02 16:56:00
1:56 PM,78.1,59.0,52,30.01,10.0,West,8.1,-,N/A,,Overcast,260,2013-08-02 17:56:00
2:56 PM,79.0,61.0,54,30.00,10.0,SW,13.8,-,N/A,,Mostly Cloudy,230,2013-08-02 18:56:00
3:56 PM,80.1,61.0,52,29.99,10.0,SSW,13.8,21.9,N/A,,Mostly Cloudy,210,2013-08-02 19:56:00
4:56 PM,82.0,61.0,49,29.97,10.0,SSW,15.0,25.3,N/A,,Mostly Cloudy,210,2013-08-02 20:56:00
5:56 PM,79.0,61.0,54,29.95,10.0,SW,16.1,-,N/A,,Mostly Cloudy,220,2013-08-02 21:56:00
6:56 PM,78.1,63.0,60,29.95,10.0,SW,16.1,-,N/A,,Overcast,220,2013-08-02 22:56:00
7:56 PM,75.9,63.0,64,29.96,10.0,SW,13.8,-,N/A,,Overcast,230,2013-08-02 23:56:00
8:56 PM,73.9,64.9,73,29.97,10.0,SW,11.5,-,0.00,Rain,Light Rain,220,2013-08-03 00:56:00
9:56 PM,72.0,66.0,81,29.98,9.0,SW,8.1,-,0.00,Rain,Light Rain,220,2013-08-03 01:56:00
10:56 PM,73.0,66.0,79,29.96,10.0,SSW,6.9,-,0.00,,Overcast,210,2013-08-03 02:56:00
11:56 PM,73.0,64.9,76,29.97,10.0,SSW,6.9,-,N/A,,Overcast,210,2013-08-03 03:56:00